createdAt,value
2023-01-15T00:02:17.654Z,11.23
2023-01-15T00:07:39.577Z,11.00
2023-01-15T00:13:01.541Z,10.85
2023-01-15T00:18:23.368Z,10.98
2023-01-15T00:23:45.226Z,11.20
2023-01-15T00:29:07.483Z,11.18
2023-01-15T00:34:29.552Z,10.30
2023-01-15T00:39:51.406Z,9.43
2023-01-15T00:45:13.439Z,10.13
2023-01-15T00:50:35.581Z,9.60
2023-01-15T00:55:57.497Z,8.65
2023-01-15T01:01:19.418Z,8.05
2023-01-15T01:06:41.973Z,8.30
2023-01-15T01:12:04.145Z,7.82
2023-01-15T01:17:26.082Z,7.30
2023-01-15T01:22:49.086Z,7.78
2023-01-15T01:28:11.265Z,6.95
2023-01-15T01:33:33.152Z,6.75
2023-01-15T01:38:55.037Z,7.03
2023-01-15T01:44:32.111Z,7.22
2023-01-15T01:49:59.823Z,7.50
2023-01-15T01:55:24.081Z,6.47
2023-01-15T02:00:49.250Z,6.68
2023-01-15T02:06:14.023Z,7.90
2023-01-15T02:11:36.248Z,7.15
2023-01-15T02:17:24.556Z,7.20
2023-01-15T02:23:11.502Z,7.40
2023-01-15T02:28:36.362Z,7.47
2023-01-15T02:34:03.137Z,7.10
2023-01-15T02:39:28.575Z,7.68
2023-01-15T02:44:53.291Z,8.02
2023-01-15T02:50:17.923Z,8.88
2023-01-15T02:55:44.436Z,8.13
2023-01-15T03:06:51.848Z,7.60
2023-01-15T03:12:19.622Z,8.45
2023-01-15T03:17:53.975Z,7.03
2023-01-15T03:23:18.820Z,9.23
2023-01-15T03:28:42.079Z,8.32
2023-01-15T03:34:04.067Z,8.95
2023-01-15T03:39:25.929Z,8.07
2023-01-15T03:45:17.932Z,8.32
2023-01-15T03:50:48.251Z,8.02
2023-01-15T03:56:30.301Z,7.70
2023-01-15T04:01:53.987Z,6.95
2023-01-15T04:07:16.447Z,6.47
2023-01-15T04:12:38.305Z,6.85
2023-01-15T04:18:00.216Z,8.00
2023-01-15T04:23:23.032Z,6.47
2023-01-15T04:28:45.348Z,5.80
2023-01-15T04:34:07.227Z,5.78
2023-01-15T04:39:29.123Z,5.90
2023-01-15T04:44:50.973Z,5.72
2023-01-15T04:50:12.814Z,5.55
2023-01-15T04:55:34.651Z,5.60
2023-01-15T05:00:57.438Z,5.00
2023-01-15T05:06:19.412Z,5.13
2023-01-15T05:11:41.367Z,4.47
2023-01-15T05:17:03.210Z,4.60
2023-01-15T05:22:25.119Z,4.65
2023-01-15T05:27:47.016Z,4.05
2023-01-15T05:33:08.828Z,4.45
2023-01-15T05:38:30.725Z,3.83
2023-01-15T05:43:52.890Z,3.67
2023-01-15T05:49:17.962Z,3.25
2023-01-15T05:54:39.880Z,3.67
2023-01-15T06:00:01.934Z,3.75
2023-01-15T06:05:23.800Z,2.88
2023-01-15T06:10:46.600Z,3.05
2023-01-15T06:16:09.603Z,2.95
2023-01-15T06:21:33.376Z,2.80
2023-01-15T06:26:55.327Z,2.90
2023-01-15T06:32:17.278Z,2.85
2023-01-15T06:37:39.186Z,2.30
2023-01-15T06:43:01.092Z,2.25
2023-01-15T06:48:24.351Z,3.17
2023-01-15T06:53:46.853Z,2.78
2023-01-15T06:59:08.701Z,2.75
2023-01-15T07:04:30.720Z,2.60
2023-01-15T07:09:52.577Z,3.00
2023-01-15T07:15:14.475Z,2.50
2023-01-15T07:20:36.299Z,2.50
2023-01-15T07:25:58.179Z,2.35
2023-01-15T07:31:20.063Z,2.70
2023-01-15T07:36:42.129Z,2.75
2023-01-15T07:42:04.089Z,2.20
2023-01-15T07:47:27.365Z,2.33
2023-01-15T07:52:51.378Z,3.10
2023-01-15T07:58:14.682Z,2.22
2023-01-15T08:03:36.573Z,2.50
2023-01-15T08:08:58.453Z,2.10
2023-01-15T08:14:20.358Z,2.58
2023-01-15T08:19:42.313Z,2.42
2023-01-15T08:25:05.065Z,2.75
2023-01-15T08:30:26.942Z,2.40
2023-01-15T08:35:48.815Z,2.40
2023-01-15T08:41:11.149Z,2.22
2023-01-15T08:46:33.019Z,2.40
2023-01-15T08:51:54.996Z,2.40
2023-01-15T08:57:16.843Z,2.38
2023-01-15T09:02:38.707Z,2.42
2023-01-15T09:08:00.585Z,2.58
2023-01-15T09:13:22.846Z,2.58
2023-01-15T09:18:44.886Z,2.53
2023-01-15T09:24:07.123Z,3.08
2023-01-15T09:29:29.003Z,3.28
2023-01-15T09:34:50.866Z,2.63
2023-01-15T09:40:31.390Z,2.60
2023-01-15T09:46:16.174Z,3.05
2023-01-15T09:51:48.634Z,2.80
2023-01-15T09:57:13.895Z,2.90
2023-01-15T10:02:45.247Z,3.13
2023-01-15T10:08:16.152Z,3.20
2023-01-15T10:13:45.481Z,3.30
2023-01-15T10:19:08.942Z,3.53
2023-01-15T10:24:38.855Z,3.00
2023-01-15T10:30:17.446Z,3.28
2023-01-15T10:35:57.245Z,3.70
2023-01-15T10:41:54.592Z,3.10
2023-01-15T10:47:20.855Z,3.53
2023-01-15T10:52:47.229Z,3.83
2023-01-15T10:58:10.857Z,3.65
2023-01-15T11:03:37.347Z,3.72
2023-01-15T11:09:09.696Z,3.58
2023-01-15T11:14:43.620Z,4.10
2023-01-15T11:20:33.287Z,4.47
2023-01-15T11:25:56.870Z,4.03
2023-01-15T11:31:18.810Z,4.55
2023-01-15T11:36:40.789Z,4.57
2023-01-15T11:42:15.253Z,4.13
2023-01-15T11:47:37.072Z,4.72
2023-01-15T11:52:59.319Z,5.00
2023-01-15T11:58:22.366Z,5.22
2023-01-15T12:03:44.425Z,5.10
2023-01-15T12:09:31.191Z,4.93
2023-01-15T12:14:59.162Z,5.53
2023-01-15T12:20:30.846Z,5.60
2023-01-15T12:25:58.625Z,5.35
2023-01-15T12:31:29.488Z,5.30
2023-01-15T12:37:14.183Z,5.60
2023-01-15T12:42:37.008Z,5.97
2023-01-15T12:48:14.043Z,5.75
2023-01-15T12:53:43.032Z,5.72
2023-01-15T12:59:33.969Z,6.00
2023-01-15T13:05:14.321Z,5.63
2023-01-15T13:10:39.939Z,5.75
2023-01-15T13:16:20.390Z,5.87
2023-01-15T13:21:44.764Z,5.60
2023-01-15T13:27:12.562Z,5.78
2023-01-15T13:32:42.483Z,7.00
2023-01-15T13:38:06.981Z,6.97
2023-01-15T13:43:34.553Z,6.25
2023-01-15T13:48:56.544Z,6.13
2023-01-15T13:54:23.119Z,5.97
2023-01-15T14:05:34.755Z,5.90
2023-01-15T14:10:56.672Z,6.00
2023-01-15T14:16:59.168Z,5.45
2023-01-15T14:22:45.260Z,6.07
2023-01-15T14:28:14.859Z,6.47
2023-01-15T14:34:03.607Z,6.28
2023-01-15T14:39:47.958Z,6.88
2023-01-15T14:45:12.780Z,6.03
2023-01-15T14:50:38.687Z,6.18
2023-01-15T14:56:15.547Z,6.20
2023-01-15T15:02:35.005Z,5.68
2023-01-15T15:07:57.345Z,4.40
2023-01-15T15:13:33.027Z,4.88
2023-01-15T15:18:59.517Z,4.60
2023-01-15T15:24:31.204Z,5.82
2023-01-15T15:30:06.767Z,5.65
2023-01-15T15:35:30.985Z,5.70
2023-01-15T15:41:04.249Z,5.15
2023-01-15T15:46:30.496Z,4.93
2023-01-15T15:51:54.248Z,5.22
2023-01-15T15:57:18.679Z,5.03
2023-01-15T16:02:40.685Z,4.93
2023-01-15T16:08:17.647Z,5.50
2023-01-15T16:13:47.107Z,4.68
2023-01-15T16:19:16.113Z,5.32
2023-01-15T16:24:37.949Z,4.97
2023-01-15T16:30:00.069Z,4.57
2023-01-15T16:35:25.038Z,4.68
2023-01-15T16:40:47.271Z,4.97
2023-01-15T16:46:20.355Z,4.68
2023-01-15T16:51:42.239Z,5.72
2023-01-15T16:57:27.739Z,4.95
2023-01-15T17:02:49.625Z,5.13
2023-01-15T17:08:20.233Z,6.57
2023-01-15T17:13:42.048Z,5.13
2023-01-15T17:19:05.827Z,5.22
2023-01-15T17:24:27.645Z,5.65
2023-01-15T17:29:49.653Z,6.35
2023-01-15T17:35:35.333Z,6.38
2023-01-15T17:40:58.957Z,5.63
2023-01-15T17:46:20.824Z,6.32
2023-01-15T17:51:42.786Z,6.78
2023-01-15T17:57:04.661Z,6.45
2023-01-15T18:02:26.522Z,5.80
2023-01-15T18:07:48.458Z,7.22
2023-01-15T18:13:10.384Z,7.25
2023-01-15T18:18:32.192Z,6.93
2023-01-15T18:23:53.983Z,7.43
2023-01-15T18:29:15.817Z,6.50
2023-01-15T18:34:37.747Z,7.82
2023-01-15T18:40:00.051Z,6.97
2023-01-15T18:45:21.911Z,7.60
2023-01-15T18:50:43.774Z,7.30
2023-01-15T18:56:05.993Z,8.18
2023-01-15T19:01:27.896Z,6.80
2023-01-15T19:06:49.816Z,6.75
2023-01-15T19:12:11.716Z,6.40
2023-01-15T19:17:33.730Z,6.88
2023-01-15T19:22:55.605Z,6.57
2023-01-15T19:28:20.240Z,6.63
2023-01-15T19:33:42.318Z,5.22
2023-01-15T19:39:04.422Z,5.60
2023-01-15T19:44:26.387Z,4.05
2023-01-15T19:49:48.301Z,3.60
2023-01-15T19:55:11.201Z,4.03
2023-01-15T20:00:36.827Z,3.40
2023-01-15T20:05:58.808Z,3.20
2023-01-15T20:11:20.773Z,3.22
2023-01-15T20:16:42.658Z,3.13
2023-01-15T20:22:04.545Z,3.60
2023-01-15T20:27:26.430Z,3.88
2023-01-15T20:32:48.705Z,3.95
2023-01-15T20:38:10.582Z,3.92
2023-01-15T20:43:32.594Z,4.38
2023-01-15T20:48:54.437Z,4.22
2023-01-15T20:54:16.326Z,4.90
2023-01-15T20:59:38.162Z,5.72
2023-01-15T21:05:00.098Z,5.38
2023-01-15T21:10:23.010Z,5.85
2023-01-15T21:15:44.866Z,7.30
2023-01-15T21:21:14.305Z,6.63
2023-01-15T21:26:37.085Z,5.80
2023-01-15T21:31:59.039Z,6.20
2023-01-15T21:37:21.028Z,5.13
2023-01-15T21:42:42.889Z,4.78
2023-01-15T21:48:04.842Z,5.28
2023-01-15T21:53:26.667Z,4.68
2023-01-15T21:58:48.540Z,4.90
2023-01-15T22:04:10.359Z,3.75
2023-01-15T22:09:32.295Z,3.83
2023-01-15T22:14:54.153Z,4.28
2023-01-15T22:20:16.172Z,4.35
2023-01-15T22:25:38.047Z,4.03
2023-01-15T22:30:59.938Z,4.13
2023-01-15T22:36:21.841Z,4.40
2023-01-15T22:41:44.802Z,4.22
2023-01-15T22:47:06.947Z,3.55
2023-01-15T22:52:28.819Z,4.00
2023-01-15T22:57:50.650Z,4.25
2023-01-15T23:03:12.490Z,4.28
2023-01-15T23:08:35.662Z,4.20
2023-01-15T23:13:57.519Z,4.38
2023-01-15T23:19:20.035Z,3.55
2023-01-15T23:24:41.904Z,3.80
2023-01-15T23:30:04.934Z,3.80
2023-01-15T23:35:26.775Z,3.35
2023-01-15T23:40:48.627Z,3.83
2023-01-15T23:46:14.785Z,3.80
2023-01-15T23:51:37.621Z,3.30
2023-01-15T23:57:00.911Z,4.03
